Time;durP1;ratioP1;P1;durP2;ratioP2;P2;SDS_P1;SDS_P2;PMS_P1;PMS_P2;Temp;Humidity;BMP_temperature;BMP_pressure;BME280_temperature;BME280_humidity;BME280_pressure;Samples;Min_cycle;Max_cycle;Signal;HPM_P1;HPM_P2
2023/12/10 00:01:04;;;;;;;16.95;8.25;;;0.00;67.60;;;;;;4966924;28;117405;-80
2023/12/10 00:03:31;;;;;;;13.18;7.55;;;0.00;67.70;;;;;;4988487;28;117481;-80
2023/12/10 00:05:59;;;;;;;12.98;7.38;;;0.10;67.70;;;;;;4988715;28;114516;-80
2023/12/10 00:08:42;;;;;;;13.77;6.78;;;0.10;67.60;;;;;;4967910;28;115146;-80
2023/12/10 00:11:11;;;;;;;14.40;7.50;;;0.10;67.60;;;;;;4948413;28;117882;-78
2023/12/10 00:13:39;;;;;;;12.98;7.53;;;0.10;67.40;;;;;;4975652;28;114617;-79
2023/12/10 00:16:08;;;;;;;12.02;6.80;;;0.10;67.40;;;;;;4958195;28;114471;-81
2023/12/10 00:18:37;;;;;;;12.65;7.80;;;0.20;67.30;;;;;;4974900;28;114475;-80
2023/12/10 00:21:05;;;;;;;10.98;6.28;;;0.10;67.30;;;;;;4974135;28;115785;-80
2023/12/10 00:23:32;;;;;;;11.27;5.80;;;0.10;67.30;;;;;;4971150;28;115158;-81
2023/12/10 00:26:02;;;;;;;10.95;6.30;;;0.10;67.40;;;;;;4975950;28;114505;-81
2023/12/10 00:28:29;;;;;;;10.30;5.97;;;0.20;67.40;;;;;;4977568;28;114250;-81
2023/12/10 00:30:56;;;;;;;11.43;6.18;;;0.20;67.30;;;;;;4976377;28;115068;-79
2023/12/10 00:33:24;;;;;;;12.43;6.38;;;0.10;67.30;;;;;;4972867;28;114687;-78
2023/12/10 00:35:51;;;;;;;10.80;6.10;;;0.10;67.30;;;;;;4960054;28;114448;-81
2023/12/10 00:38:19;;;;;;;11.07;6.35;;;0.10;67.40;;;;;;4976110;28;114664;-80
2023/12/10 00:40:49;;;;;;;9.23;4.93;;;0.10;67.30;;;;;;4959618;28;115639;-80
2023/12/10 00:43:17;;;;;;;11.57;5.82;;;0.10;67.40;;;;;;4966152;28;114757;-80
2023/12/10 00:45:45;;;;;;;9.00;4.82;;;0.10;67.30;;;;;;4933680;28;114425;-80
2023/12/10 00:48:13;;;;;;;12.40;6.25;;;0.10;67.40;;;;;;4989842;28;114659;-80
2023/12/10 00:50:40;;;;;;;11.63;6.63;;;0.10;67.50;;;;;;5005867;28;116671;-81
2023/12/10 00:53:07;;;;;;;7.82;4.50;;;0.10;67.40;;;;;;4987435;28;114602;-81
2023/12/10 00:55:35;;;;;;;8.32;4.38;;;0.10;67.20;;;;;;4987212;28;114382;-80
2023/12/10 00:58:02;;;;;;;11.27;5.75;;;0.10;67.30;;;;;;4981163;28;114338;-81
2023/12/10 01:00:30;;;;;;;10.35;5.55;;;0.10;67.40;;;;;;4984965;28;115149;-80
2023/12/10 01:02:57;;;;;;;9.88;5.22;;;0.10;67.30;;;;;;4984616;28;114601;-81
2023/12/10 01:05:25;;;;;;;9.63;5.07;;;0.10;67.30;;;;;;4983576;28;114964;-80
2023/12/10 01:07:53;;;;;;;9.23;4.10;;;0.20;67.40;;;;;;4980887;28;114518;-80
2023/12/10 01:10:20;;;;;;;8.13;4.57;;;0.20;67.30;;;;;;4981883;28;115066;-81
2023/12/10 01:12:48;;;;;;;9.77;5.05;;;0.20;67.20;;;;;;4983923;28;114582;-80
2023/12/10 01:15:16;;;;;;;10.55;5.90;;;0.20;67.30;;;;;;4989052;28;114331;-79
2023/12/10 01:17:43;;;;;;;12.73;7.22;;;0.20;67.40;;;;;;4976633;28;114681;-80
2023/12/10 01:20:11;;;;;;;11.98;6.93;;;0.20;67.50;;;;;;4940809;28;118341;-80
2023/12/10 01:22:38;;;;;;;17.25;10.20;;;0.20;67.50;;;;;;4969824;28;114632;-81
2023/12/10 01:25:06;;;;;;;15.63;10.10;;;0.30;67.50;;;;;;4973796;28;114639;-82
2023/12/10 01:27:34;;;;;;;17.63;9.60;;;0.30;67.50;;;;;;4974222;28;114418;-80
2023/12/10 01:30:01;;;;;;;10.55;5.95;;;0.40;67.20;;;;;;4972703;28;115420;-79
2023/12/10 01:32:29;;;;;;;11.60;6.80;;;0.40;67.10;;;;;;4976716;28;116018;-80
2023/12/10 01:34:56;;;;;;;14.00;8.50;;;0.40;67.00;;;;;;4981723;28;114395;-81
2023/12/10 01:37:24;;;;;;;15.98;7.63;;;0.40;67.00;;;;;;4984931;28;114449;-80
2023/12/10 01:39:51;;;;;;;12.15;7.18;;;0.40;66.90;;;;;;4982784;28;115394;-80
2023/12/10 01:42:18;;;;;;;16.10;9.65;;;0.40;66.90;;;;;;4981348;28;114900;-81
2023/12/10 01:44:49;;;;;;;17.05;10.40;;;0.40;66.90;;;;;;4983258;28;114659;-80
2023/12/10 01:47:19;;;;;;;21.00;11.80;;;0.50;66.80;;;;;;4981346;28;114588;-80
2023/12/10 01:49:49;;;;;;;26.02;13.75;;;0.50;66.70;;;;;;4971159;28;115103;-81
2023/12/10 01:52:22;;;;;;;21.83;12.50;;;0.50;66.90;;;;;;4957197;28;115069;-80
2023/12/10 01:54:49;;;;;;;23.15;13.93;;;0.50;66.90;;;;;;4950199;28;114500;-80
2023/12/10 01:57:16;;;;;;;21.30;12.68;;;0.60;66.90;;;;;;4985546;28;114633;-80
2023/12/10 01:59:44;;;;;;;14.73;8.80;;;0.60;66.80;;;;;;4964251;28;115311;-80
2023/12/10 02:02:12;;;;;;;13.25;7.90;;;0.60;66.40;;;;;;4981632;28;114650;-81
2023/12/10 02:04:40;;;;;;;9.60;5.45;;;0.70;66.50;;;;;;4979256;28;114417;-81
2023/12/10 02:07:08;;;;;;;9.80;5.75;;;0.60;66.30;;;;;;4982203;28;114293;-80
2023/12/10 02:09:36;;;;;;;7.35;4.55;;;0.60;66.00;;;;;;4980531;28;117810;-79
2023/12/10 02:12:04;;;;;;;9.65;5.57;;;0.60;65.70;;;;;;4982490;28;114719;-79
2023/12/10 02:14:31;;;;;;;7.10;4.65;;;0.60;65.60;;;;;;4979702;28;114497;-80
2023/12/10 02:16:59;;;;;;;8.32;4.78;;;0.50;65.80;;;;;;4982899;28;114882;-81
2023/12/10 02:19:26;;;;;;;7.70;5.05;;;0.50;65.70;;;;;;4979985;28;115337;-79
2023/12/10 02:21:53;;;;;;;8.70;4.15;;;0.50;65.80;;;;;;4986191;28;115424;-80
2023/12/10 02:24:40;;;;;;;10.13;5.18;;;0.50;65.80;;;;;;4973331;28;114423;-80
2023/12/10 02:27:09;;;;;;;6.72;4.05;;;0.50;65.70;;;;;;4966078;28;114272;-80
2023/12/10 02:29:36;;;;;;;7.75;4.28;;;0.40;65.40;;;;;;4963597;28;115212;-79
2023/12/10 02:32:04;;;;;;;7.53;4.57;;;0.40;65.40;;;;;;4968330;28;117883;-80
2023/12/10 02:34:31;;;;;;;6.93;3.75;;;0.40;65.40;;;;;;4970782;28;114624;-81
2023/12/10 02:36:58;;;;;;;9.38;4.97;;;0.30;65.40;;;;;;4996109;28;114509;-79
2023/12/10 02:39:26;;;;;;;9.75;5.25;;;0.20;65.70;;;;;;4980649;28;117187;-81
2023/12/10 02:41:54;;;;;;;11.18;5.75;;;0.20;65.80;;;;;;4972269;28;114727;-79
2023/12/10 02:44:21;;;;;;;12.20;5.43;;;0.20;66.00;;;;;;4973196;28;116727;-81
2023/12/10 02:46:48;;;;;;;11.02;5.80;;;0.20;66.00;;;;;;4983184;28;114425;-80
2023/12/10 02:49:19;;;;;;;9.82;5.50;;;0.20;66.10;;;;;;4977828;28;115030;-80
2023/12/10 02:51:46;;;;;;;16.30;6.90;;;0.20;66.10;;;;;;4981338;28;114709;-81
2023/12/10 02:54:16;;;;;;;17.70;7.63;;;0.20;66.10;;;;;;4985415;28;114387;-81
2023/12/10 02:56:45;;;;;;;19.15;7.82;;;0.20;66.20;;;;;;4959178;28;114516;-81
2023/12/10 02:59:12;;;;;;;25.38;11.20;;;0.20;66.30;;;;;;4949278;28;116468;-80
2023/12/10 03:01:40;;;;;;;20.58;10.05;;;0.20;66.20;;;;;;4972137;28;114716;-80
2023/12/10 03:04:07;;;;;;;19.67;9.40;;;0.30;66.40;;;;;;4972862;28;114786;-80
2023/12/10 03:06:35;;;;;;;11.07;5.38;;;0.30;66.10;;;;;;4972146;28;114326;-80
2023/12/10 03:09:02;;;;;;;11.57;6.28;;;0.40;66.10;;;;;;4957251;28;115672;-80
2023/12/10 03:11:29;;;;;;;11.65;6.03;;;0.40;66.00;;;;;;4952432;28;115238;-80
2023/12/10 03:13:57;;;;;;;13.70;6.90;;;0.40;65.90;;;;;;4975129;28;114731;-80
2023/12/10 03:16:24;;;;;;;8.43;5.10;;;0.40;66.00;;;;;;4980492;28;114524;-81
2023/12/10 03:18:51;;;;;;;12.48;6.18;;;0.50;66.00;;;;;;4971415;28;116225;-79
2023/12/10 03:21:19;;;;;;;15.82;7.53;;;0.50;65.60;;;;;;4968604;28;114619;-80
2023/12/10 03:23:46;;;;;;;15.75;7.75;;;0.50;65.60;;;;;;4974690;28;114616;-80
2023/12/10 03:26:13;;;;;;;12.73;7.15;;;0.50;65.90;;;;;;4970940;28;114777;-81
2023/12/10 03:28:42;;;;;;;15.15;7.60;;;0.50;65.80;;;;;;4977524;28;115766;-80
2023/12/10 03:31:09;;;;;;;9.27;5.00;;;0.50;65.90;;;;;;4983548;28;115753;-80
2023/12/10 03:33:37;;;;;;;13.88;7.10;;;0.60;65.50;;;;;;4980367;28;115023;-81
2023/12/10 03:36:04;;;;;;;12.85;7.72;;;0.60;65.60;;;;;;4986938;28;114340;-81
2023/12/10 03:38:32;;;;;;;15.13;7.78;;;0.60;65.30;;;;;;4984829;28;115117;-81
2023/12/10 03:41:02;;;;;;;10.80;6.38;;;0.60;65.30;;;;;;4968036;28;117723;-81
2023/12/10 03:43:30;;;;;;;14.48;7.70;;;0.60;65.60;;;;;;4966078;28;114436;-81
2023/12/10 03:45:57;;;;;;;12.80;6.75;;;0.60;65.30;;;;;;4980132;28;114592;-81
2023/12/10 03:48:41;;;;;;;;;;;0.70;65.30;;;;;;4969925;28;117275;-81
2023/12/10 03:51:09;;;;;;;11.48;6.25;;;0.60;65.10;;;;;;4969538;28;114549;-81
2023/12/10 03:53:36;;;;;;;9.43;5.70;;;0.60;65.00;;;;;;4969395;28;114682;-80
2023/12/10 03:56:04;;;;;;;15.45;8.13;;;0.60;65.00;;;;;;4937207;28;114463;-81
2023/12/10 03:58:32;;;;;;;10.13;5.85;;;0.60;65.10;;;;;;4988305;28;115088;-80
2023/12/10 04:00:59;;;;;;;13.77;7.32;;;0.60;65.10;;;;;;4963748;28;114589;-80
2023/12/10 04:03:26;;;;;;;10.55;6.32;;;0.60;65.20;;;;;;4971130;28;114159;-80
2023/12/10 04:05:54;;;;;;;12.75;6.65;;;0.60;65.10;;;;;;4953155;28;114521;-81
2023/12/10 04:08:22;;;;;;;13.07;6.38;;;0.60;65.30;;;;;;4970034;28;115038;-80
2023/12/10 04:10:50;;;;;;;16.00;8.68;;;0.70;65.30;;;;;;4983310;28;114927;-79
2023/12/10 04:13:17;;;;;;;14.43;7.80;;;0.70;65.10;;;;;;4989000;28;114271;-81
2023/12/10 04:15:44;;;;;;;13.75;8.10;;;0.70;65.30;;;;;;4937473;28;114478;-80
2023/12/10 04:18:12;;;;;;;14.38;7.97;;;0.80;65.40;;;;;;4968382;28;117829;-80
2023/12/10 04:20:39;;;;;;;13.43;7.68;;;0.80;65.50;;;;;;4970197;28;114862;-80
2023/12/10 04:23:06;;;;;;;16.00;8.10;;;0.90;65.50;;;;;;4962493;28;115099;-80
2023/12/10 04:25:34;;;;;;;13.32;7.18;;;1.00;65.60;;;;;;4957593;28;114244;-80
2023/12/10 04:28:01;;;;;;;14.98;7.75;;;1.10;65.60;;;;;;4983322;28;114540;-81
2023/12/10 04:30:28;;;;;;;13.93;7.55;;;1.10;65.60;;;;;;4952448;28;114685;-80
2023/12/10 04:32:56;;;;;;;17.38;9.00;;;1.20;65.60;;;;;;4955426;28;114513;-80
2023/12/10 04:35:25;;;;;;;15.68;8.68;;;1.30;65.50;;;;;;4985972;28;114133;-80
2023/12/10 04:37:52;;;;;;;14.98;8.85;;;1.30;65.40;;;;;;4969997;28;115175;-80
2023/12/10 04:40:21;;;;;;;14.50;8.77;;;1.40;65.40;;;;;;4986857;28;114085;-81
2023/12/10 04:42:49;;;;;;;15.90;8.10;;;1.50;65.40;;;;;;4971976;28;114129;-81
2023/12/10 04:45:17;;;;;;;16.38;8.35;;;1.50;65.10;;;;;;4970941;28;117369;-80
2023/12/10 04:47:44;;;;;;;18.17;9.27;;;1.40;65.20;;;;;;4968564;28;115130;-81
2023/12/10 04:50:12;;;;;;;17.95;9.57;;;1.40;65.30;;;;;;4975100;28;114703;-81
2023/12/10 04:52:39;;;;;;;17.85;10.00;;;1.40;65.40;;;;;;4987779;28;114162;-81
2023/12/10 04:55:07;;;;;;;17.55;9.68;;;1.40;65.60;;;;;;4976825;28;114633;-81
2023/12/10 04:57:34;;;;;;;17.65;9.40;;;1.50;65.70;;;;;;4988699;28;115020;-81
2023/12/10 05:00:03;;;;;;;15.35;9.57;;;1.50;65.80;;;;;;4971511;28;114515;-81
2023/12/10 05:02:31;;;;;;;16.00;8.20;;;1.50;66.00;;;;;;4969345;28;114465;-81
2023/12/10 05:04:58;;;;;;;17.40;8.77;;;1.50;66.00;;;;;;4970770;28;114547;-80
2023/12/10 05:07:28;;;;;;;18.83;9.05;;;1.40;66.20;;;;;;4985468;28;115065;-81
2023/12/10 05:09:55;;;;;;;13.90;8.32;;;1.40;66.40;;;;;;4978005;28;115728;-80
2023/12/10 05:12:22;;;;;;;16.85;9.05;;;1.40;66.60;;;;;;4952331;28;114449;-81
2023/12/10 05:14:50;;;;;;;18.95;9.85;;;1.40;66.90;;;;;;4979026;28;114790;-80
2023/12/10 05:17:17;;;;;;;19.17;11.02;;;1.40;67.00;;;;;;4987941;28;115785;-80
2023/12/10 05:19:44;;;;;;;20.50;10.48;;;1.30;67.30;;;;;;4980421;28;114665;-80
2023/12/10 05:22:12;;;;;;;19.38;10.93;;;1.20;67.50;;;;;;4969723;28;114273;-80
2023/12/10 05:24:40;;;;;;;19.55;10.73;;;1.20;67.80;;;;;;4970345;28;114421;-81
2023/12/10 05:27:10;;;;;;;22.70;11.32;;;1.20;68.00;;;;;;4951435;28;118956;-82
2023/12/10 05:29:37;;;;;;;21.10;11.45;;;1.30;68.20;;;;;;4967930;28;116816;-80
2023/12/10 05:32:05;;;;;;;23.00;12.63;;;1.30;68.20;;;;;;4952279;28;114773;-81
2023/12/10 05:34:33;;;;;;;25.55;13.15;;;1.40;68.20;;;;;;4951896;28;114431;-81
2023/12/10 05:37:00;;;;;;;19.63;11.50;;;1.30;68.30;;;;;;4975023;28;115566;-80
2023/12/10 05:39:30;;;;;;;24.77;12.15;;;1.20;68.40;;;;;;4984273;28;114605;-80
2023/12/10 05:42:00;;;;;;;25.92;12.85;;;1.20;68.60;;;;;;4968893;28;114216;-80
2023/12/10 05:44:31;;;;;;;26.33;12.85;;;1.20;68.70;;;;;;4972798;28;114529;-81
2023/12/10 05:46:58;;;;;;;23.48;13.25;;;1.20;68.80;;;;;;4985455;28;115020;-79
2023/12/10 05:49:26;;;;;;;24.40;13.93;;;1.40;68.90;;;;;;4975206;28;114612;-79
2023/12/10 05:51:53;;;;;;;21.02;12.65;;;1.40;68.90;;;;;;4972149;28;114641;-81
2023/12/10 05:54:21;;;;;;;24.10;13.25;;;1.40;69.00;;;;;;4989455;28;114478;-80
2023/12/10 05:56:48;;;;;;;21.60;11.85;;;1.50;69.00;;;;;;4983390;28;115245;-79
2023/12/10 05:59:33;;;;;;;23.20;12.32;;;1.50;69.00;;;;;;4981634;28;114567;-80
2023/12/10 06:02:00;;;;;;;25.77;13.38;;;1.60;68.90;;;;;;4980033;28;114367;-79
2023/12/10 06:04:27;;;;;;;22.08;12.48;;;1.60;68.90;;;;;;4954887;28;114250;-80
2023/12/10 06:06:55;;;;;;;21.90;11.35;;;1.60;68.90;;;;;;4979856;28;114479;-79
2023/12/10 06:09:23;;;;;;;18.00;11.05;;;1.60;68.90;;;;;;4977467;28;114682;-79
2023/12/10 06:11:50;;;;;;;19.90;11.10;;;1.70;68.90;;;;;;4978928;28;114788;-80
2023/12/10 06:14:18;;;;;;;19.67;11.45;;;1.70;68.90;;;;;;4983453;28;114732;-79
2023/12/10 06:16:45;;;;;;;24.02;12.20;;;1.70;68.90;;;;;;4999594;28;114453;-79
2023/12/10 06:19:12;;;;;;;25.45;14.30;;;1.70;68.90;;;;;;4977610;28;115427;-79
2023/12/10 06:21:40;;;;;;;24.83;14.38;;;1.70;68.90;;;;;;5006241;28;114070;-79
2023/12/10 06:24:07;;;;;;;22.88;12.88;;;1.70;68.90;;;;;;4981758;28;114462;-80
2023/12/10 06:26:34;;;;;;;21.20;12.25;;;1.70;69.00;;;;;;4979868;28;115162;-80
2023/12/10 06:29:02;;;;;;;21.38;13.27;;;1.80;69.00;;;;;;4982963;28;114677;-80
2023/12/10 06:31:29;;;;;;;21.33;11.75;;;1.80;68.90;;;;;;4980219;28;114316;-80
2023/12/10 06:33:56;;;;;;;21.40;11.30;;;1.70;68.90;;;;;;4950839;28;114668;-80
2023/12/10 06:36:24;;;;;;;20.67;11.15;;;1.70;68.90;;;;;;4971437;28;115621;-80
2023/12/10 06:38:51;;;;;;;22.23;12.35;;;1.70;69.10;;;;;;4974141;28;114653;-81
2023/12/10 06:41:18;;;;;;;18.52;10.68;;;1.70;69.20;;;;;;4980273;28;114529;-81
2023/12/10 06:43:46;;;;;;;26.80;16.15;;;1.70;69.30;;;;;;4978807;28;114497;-81
2023/12/10 06:46:17;;;;;;;25.33;15.18;;;1.70;69.30;;;;;;4978387;28;114497;-81
2023/12/10 06:48:44;;;;;;;30.98;17.02;;;1.70;69.30;;;;;;4956624;28;116118;-81
2023/12/10 06:51:12;;;;;;;26.83;15.32;;;1.70;69.40;;;;;;4981117;28;114355;-81
2023/12/10 06:53:42;;;;;;;28.02;13.93;;;1.60;69.50;;;;;;4948619;28;114567;-80
2023/12/10 06:56:10;;;;;;;24.92;13.60;;;1.70;69.50;;;;;;4947808;28;115116;-81
2023/12/10 06:58:37;;;;;;;24.02;14.25;;;1.70;69.50;;;;;;4972492;28;115040;-81
2023/12/10 07:01:06;;;;;;;24.27;13.80;;;1.70;69.40;;;;;;4970104;28;114965;-81
2023/12/10 07:03:34;;;;;;;23.90;12.98;;;1.80;69.50;;;;;;4978322;28;114661;-84
2023/12/10 07:06:03;;;;;;;26.23;14.90;;;1.80;69.40;;;;;;4961662;28;115334;-82
2023/12/10 07:08:31;;;;;;;28.17;16.33;;;1.80;69.40;;;;;;4959306;28;115530;-80
2023/12/10 07:10:59;;;;;;;28.98;15.20;;;1.90;69.40;;;;;;4960566;28;116736;-80
2023/12/10 07:13:27;;;;;;;30.13;16.63;;;1.90;69.40;;;;;;4974917;28;114753;-80
2023/12/10 07:15:54;;;;;;;25.88;15.90;;;1.90;69.50;;;;;;4970725;28;115339;-80
2023/12/10 07:18:23;;;;;;;27.33;16.02;;;1.80;69.60;;;;;;4965768;28;115119;-81
2023/12/10 07:20:50;;;;;;;24.92;14.95;;;1.80;69.70;;;;;;4950509;28;114571;-80
2023/12/10 07:23:17;;;;;;;29.10;15.98;;;1.80;69.70;;;;;;4972652;28;114365;-80
2023/12/10 07:25:45;;;;;;;30.40;16.83;;;1.80;69.70;;;;;;4981028;28;115137;-81
2023/12/10 07:28:12;;;;;;;38.78;21.92;;;1.90;69.80;;;;;;4979530;28;115058;-81
2023/12/10 07:30:41;;;;;;;41.55;23.58;;;1.90;69.80;;;;;;4986303;28;114574;-81
2023/12/10 07:33:10;;;;;;;43.40;24.08;;;1.90;70.30;;;;;;4984665;28;114590;-81
2023/12/10 07:35:38;;;;;;;37.15;21.08;;;1.90;70.50;;;;;;4950927;28;117074;-79
2023/12/10 07:38:05;;;;;;;40.35;20.38;;;1.90;70.50;;;;;;4975571;28;114915;-80
2023/12/10 07:40:32;;;;;;;38.42;20.25;;;1.90;70.60;;;;;;4980098;28;114618;-80
2023/12/10 07:43:00;;;;;;;37.30;19.25;;;1.90;70.70;;;;;;4979016;28;114950;-80
2023/12/10 07:45:27;;;;;;;25.85;14.75;;;1.90;70.70;;;;;;4975824;28;118717;-80
2023/12/10 07:47:56;;;;;;;31.10;17.52;;;1.90;70.60;;;;;;4974668;28;114847;-80
2023/12/10 07:50:23;;;;;;;29.85;17.33;;;1.90;70.60;;;;;;4981795;28;114471;-79
2023/12/10 07:52:51;;;;;;;28.45;15.68;;;1.80;70.80;;;;;;4967336;28;114595;-82
2023/12/10 07:55:18;;;;;;;28.77;16.23;;;1.80;70.90;;;;;;4979409;28;115181;-80
2023/12/10 07:57:45;;;;;;;31.13;16.55;;;1.80;71.00;;;;;;4947024;28;116644;-80
2023/12/10 08:00:14;;;;;;;27.85;15.07;;;1.90;70.90;;;;;;4966525;28;114523;-80
2023/12/10 08:02:41;;;;;;;27.75;14.57;;;1.90;70.80;;;;;;4984183;28;114412;-80
2023/12/10 08:05:09;;;;;;;23.48;12.35;;;1.90;70.70;;;;;;4965708;28;115121;-80
2023/12/10 08:07:40;;;;;;;25.00;14.05;;;1.90;70.60;;;;;;4948562;28;115269;-79
2023/12/10 08:10:07;;;;;;;23.88;13.77;;;1.80;70.60;;;;;;4978929;28;114411;-78
2023/12/10 08:12:35;;;;;;;26.52;14.75;;;1.80;70.80;;;;;;4951460;28;113960;-80
2023/12/10 08:15:03;;;;;;;26.23;15.23;;;1.80;70.80;;;;;;4948068;28;115223;-80
2023/12/10 08:17:31;;;;;;;30.65;16.13;;;1.90;70.90;;;;;;4937920;28;117451;-80
2023/12/10 08:19:59;;;;;;;35.35;17.50;;;1.90;71.40;;;;;;4949969;28;114281;-81
2023/12/10 08:22:27;;;;;;;23.70;12.40;;;1.90;72.40;;;;;;4933530;28;115893;-81
2023/12/10 08:24:54;;;;;;;19.58;12.10;;;2.00;72.00;;;;;;4975555;28;115073;-80
2023/12/10 08:27:22;;;;;;;21.05;12.32;;;2.00;71.40;;;;;;4967944;28;115351;-81
2023/12/10 08:29:50;;;;;;;25.02;13.43;;;2.00;71.30;;;;;;4940284;28;115851;-81
2023/12/10 08:32:17;;;;;;;21.63;11.52;;;2.00;71.40;;;;;;4981009;28;114290;-81
2023/12/10 08:34:45;;;;;;;20.25;12.18;;;2.10;71.00;;;;;;4973353;28;114986;-81
2023/12/10 08:37:13;;;;;;;18.55;10.60;;;2.10;70.70;;;;;;4956469;28;114687;-81
2023/12/10 08:39:42;;;;;;;21.92;11.55;;;2.10;70.40;;;;;;4958757;28;114365;-81
2023/12/10 08:42:27;;;;;;;19.88;11.18;;;2.10;70.20;;;;;;4963278;28;114286;-80
2023/12/10 08:44:55;;;;;;;17.80;10.63;;;2.10;69.90;;;;;;4969946;28;115505;-80
2023/12/10 08:47:22;;;;;;;20.00;10.27;;;2.10;69.80;;;;;;4970272;28;114658;-80
2023/12/10 08:49:51;;;;;;;18.23;11.45;;;2.10;69.70;;;;;;4967396;28;114373;-81
2023/12/10 08:52:18;;;;;;;16.35;9.07;;;2.10;69.50;;;;;;4956031;28;114325;-82
2023/12/10 08:54:46;;;;;;;18.75;9.60;;;2.10;69.30;;;;;;4954962;28;115268;-83
2023/12/10 08:57:14;;;;;;;18.08;8.93;;;2.10;69.10;;;;;;4986677;28;114529;-81
2023/12/10 08:59:42;;;;;;;13.82;8.32;;;2.10;69.00;;;;;;4952037;28;114424;-81
2023/12/10 09:02:09;;;;;;;16.85;9.75;;;2.10;68.80;;;;;;4959535;28;114608;-79
2023/12/10 09:04:36;;;;;;;21.85;10.38;;;2.10;68.60;;;;;;4968699;28;114995;-80
2023/12/10 09:07:04;;;;;;;19.33;10.70;;;2.10;68.40;;;;;;4978384;28;114742;-80
2023/12/10 09:09:32;;;;;;;17.23;9.82;;;2.10;68.20;;;;;;4969561;28;114549;-80
2023/12/10 09:12:00;;;;;;;16.98;9.25;;;2.10;68.30;;;;;;4977203;28;114899;-81
2023/12/10 09:14:27;;;;;;;21.67;10.80;;;2.10;68.20;;;;;;4981094;28;116521;-82
2023/12/10 09:16:55;;;;;;;19.08;11.52;;;2.20;68.10;;;;;;4971438;28;115247;-81
2023/12/10 09:19:23;;;;;;;18.75;11.40;;;2.10;68.00;;;;;;4965717;28;116870;-79
2023/12/10 09:21:50;;;;;;;20.85;11.75;;;2.10;68.00;;;;;;4969696;28;114730;-79
2023/12/10 09:24:19;;;;;;;18.42;11.50;;;2.20;68.10;;;;;;4966584;28;115608;-79
2023/12/10 09:27:04;;;;;;;22.92;12.88;;;2.20;68.10;;;;;;4981380;28;114698;-82
2023/12/10 09:29:38;;;;;;;21.45;12.55;;;2.20;68.00;;;;;;4973132;28;114716;-81
2023/12/10 09:32:06;;;;;;;;;;;2.30;68.00;;;;;;4949217;28;114743;-81
2023/12/10 09:34:33;;;;;;;16.90;10.32;;;2.30;68.10;;;;;;4979818;28;115217;-80
2023/12/10 09:37:01;;;;;;;14.25;8.68;;;2.30;67.80;;;;;;4958043;28;116190;-79
2023/12/10 09:39:29;;;;;;;15.30;8.90;;;2.30;67.60;;;;;;4970082;28;114504;-79
2023/12/10 09:41:56;;;;;;;16.17;8.75;;;2.30;67.50;;;;;;4971162;28;114638;-80
2023/12/10 09:44:24;;;;;;;16.98;10.57;;;2.30;67.40;;;;;;4972825;28;115034;-79
2023/12/10 09:46:51;;;;;;;17.90;11.13;;;2.40;67.40;;;;;;4974259;28;114654;-80
2023/12/10 09:49:18;;;;;;;21.80;11.48;;;2.40;67.40;;;;;;4975597;28;115028;-79
2023/12/10 09:51:46;;;;;;;20.95;11.25;;;2.40;67.30;;;;;;4983003;28;114761;-80
2023/12/10 09:54:14;;;;;;;20.52;12.00;;;2.40;67.30;;;;;;4973959;28;116946;-80
2023/12/10 09:56:41;;;;;;;19.83;13.10;;;2.50;67.20;;;;;;4968998;28;115139;-80
2023/12/10 09:59:08;;;;;;;19.92;12.55;;;2.50;67.20;;;;;;4970313;28;114712;-80
2023/12/10 10:01:35;;;;;;;19.08;12.50;;;2.60;67.20;;;;;;4953382;28;114520;-79
2023/12/10 10:04:03;;;;;;;19.10;11.70;;;2.60;67.20;;;;;;4981430;28;115007;-82
2023/12/10 10:06:31;;;;;;;25.65;12.68;;;2.60;67.10;;;;;;4980326;28;114475;-82
2023/12/10 10:08:58;;;;;;;21.33;11.50;;;2.60;67.10;;;;;;4967540;28;117228;-81
2023/12/10 10:11:26;;;;;;;23.60;12.00;;;2.60;67.00;;;;;;4978008;28;114486;-81
2023/12/10 10:13:53;;;;;;;21.23;11.93;;;2.60;67.10;;;;;;4950861;28;115104;-81
2023/12/10 10:16:23;;;;;;;21.02;11.70;;;2.70;67.10;;;;;;4964066;28;114723;-81
2023/12/10 10:18:53;;;;;;;17.80;10.18;;;2.70;67.00;;;;;;4970704;28;114997;-81
2023/12/10 10:21:22;;;;;;;20.33;10.10;;;2.60;66.90;;;;;;4982559;28;114495;-80
2023/12/10 10:23:53;;;;;;;16.25;9.07;;;2.70;66.70;;;;;;4978302;28;116990;-80
2023/12/10 10:26:20;;;;;;;18.50;9.30;;;2.50;66.50;;;;;;4950295;28;114646;-81
2023/12/10 10:28:48;;;;;;;21.38;9.55;;;2.30;66.80;;;;;;4983076;28;114512;-81
2023/12/10 10:31:15;;;;;;;16.08;8.48;;;2.30;67.10;;;;;;4984893;28;114742;-81
2023/12/10 10:33:43;;;;;;;16.52;8.90;;;2.30;67.40;;;;;;4968266;28;115070;-81
2023/12/10 10:36:11;;;;;;;15.93;8.70;;;2.30;67.50;;;;;;4984281;28;115024;-81
2023/12/10 10:38:38;;;;;;;18.83;9.27;;;2.30;67.40;;;;;;4986053;28;114836;-81
2023/12/10 10:41:05;;;;;;;15.65;9.20;;;2.40;67.40;;;;;;4985940;28;114551;-81
2023/12/10 10:43:33;;;;;;;15.77;8.70;;;2.30;67.40;;;;;;4968469;28;115220;-82
2023/12/10 10:46:00;;;;;;;17.38;8.55;;;2.30;67.50;;;;;;4984795;28;114949;-81
2023/12/10 10:48:27;;;;;;;18.73;10.10;;;2.30;67.60;;;;;;4969372;28;114911;-81
2023/12/10 10:50:55;;;;;;;15.75;9.15;;;2.30;67.60;;;;;;4952915;28;114491;-82
2023/12/10 10:53:23;;;;;;;17.35;9.65;;;2.30;67.60;;;;;;4984877;28;115688;-81
2023/12/10 10:55:50;;;;;;;19.00;9.98;;;2.30;67.70;;;;;;4984983;28;115001;-81
2023/12/10 10:58:30;;;;;;;20.23;9.55;;;2.20;67.80;;;;;;4969546;28;114435;-81
2023/12/10 11:01:02;;;;;;;17.50;9.63;;;2.30;68.00;;;;;;4987640;28;114573;-82
2023/12/10 11:03:31;;;;;;;20.10;9.30;;;2.20;67.90;;;;;;4986299;28;115010;-81
2023/12/10 11:06:04;;;;;;;17.77;9.88;;;2.20;68.10;;;;;;4969377;28;118576;-81
2023/12/10 11:08:34;;;;;;;17.15;10.35;;;2.20;68.10;;;;;;4953780;28;114720;-81
2023/12/10 11:11:02;;;;;;;16.58;9.15;;;2.20;68.10;;;;;;4988504;28;114531;-82
2023/12/10 11:13:50;;;;;;;17.08;9.98;;;2.20;68.30;;;;;;4967949;28;115813;-81
2023/12/10 11:16:17;;;;;;;17.95;10.43;;;2.20;68.50;;;;;;4967720;28;116533;-81
2023/12/10 11:18:57;;;;;;;15.57;9.35;;;2.20;68.50;;;;;;4969705;28;114629;-81
2023/12/10 11:21:25;;;;;;;17.58;10.25;;;2.20;68.70;;;;;;4970547;28;114485;-82
2023/12/10 11:23:53;;;;;;;17.52;10.18;;;2.20;68.60;;;;;;4984025;28;115891;-82
2023/12/10 11:26:20;;;;;;;17.30;10.55;;;2.20;68.70;;;;;;4984096;28;115692;-82
2023/12/10 11:28:48;;;;;;;19.75;10.50;;;2.20;68.70;;;;;;4986793;28;114620;-83
2023/12/10 11:31:15;;;;;;;18.80;10.85;;;2.20;68.90;;;;;;4968478;28;114641;-83
2023/12/10 11:33:43;;;;;;;15.80;10.50;;;2.20;69.10;;;;;;4984764;28;115126;-81
2023/12/10 11:36:10;;;;;;;17.13;9.45;;;2.20;69.20;;;;;;4984925;28;115969;-81
2023/12/10 11:38:57;;;;;;;49.30;26.98;;;2.20;69.30;;;;;;4987929;28;114333;-82
2023/12/10 11:41:28;;;;;;;20.33;12.35;;;2.20;69.40;;;;;;4986866;28;114706;-83
2023/12/10 11:43:56;;;;;;;20.38;11.80;;;2.20;69.50;;;;;;4985031;28;116266;-82
2023/12/10 11:46:24;;;;;;;23.90;11.98;;;2.30;69.50;;;;;;4983476;28;117694;-80
2023/12/10 11:49:06;;;;;;;19.08;11.13;;;2.20;69.50;;;;;;4958516;28;114613;-82
2023/12/10 11:51:38;;;;;;;19.60;11.32;;;2.20;69.60;;;;;;4972525;28;114507;-83
2023/12/10 11:54:07;;;;;;;17.60;10.23;;;2.20;69.70;;;;;;4987749;28;115038;-83
2023/12/10 11:56:34;;;;;;;14.95;9.88;;;2.20;69.80;;;;;;4989654;28;115079;-81
2023/12/10 11:59:02;;;;;;;14.85;9.65;;;2.20;69.70;;;;;;4980958;28;115259;-81
2023/12/10 12:01:31;;;;;;;16.65;10.10;;;2.10;69.90;;;;;;4998043;28;114265;-81
2023/12/10 12:03:59;;;;;;;17.05;10.63;;;2.00;70.10;;;;;;4973473;28;115431;-82
2023/12/10 12:06:41;;;;;;;17.52;11.15;;;2.10;70.20;;;;;;4970707;28;117118;-83
2023/12/10 12:09:20;;;;;;;19.85;12.55;;;2.10;70.50;;;;;;4972587;28;114898;-81
2023/12/10 12:11:51;;;;;;;23.00;13.02;;;2.10;70.50;;;;;;4939720;28;114672;-84
2023/12/10 12:14:19;;;;;;;21.90;13.38;;;2.10;70.50;;;;;;4986994;28;115050;-82
2023/12/10 12:16:46;;;;;;;20.95;12.50;;;2.10;70.60;;;;;;4970621;28;114663;-83
2023/12/10 12:19:29;;;;;;;23.23;13.20;;;2.10;70.60;;;;;;4988148;28;114525;-82
2023/12/10 12:21:58;;;;;;;24.40;13.87;;;2.20;70.80;;;;;;4971589;28;114553;-82
2023/12/10 12:24:26;;;;;;;26.33;14.68;;;2.20;70.60;;;;;;4954144;28;116807;-82
2023/12/10 12:26:55;;;;;;;26.27;14.00;;;2.20;70.70;;;;;;4954400;28;118388;-82
2023/12/10 12:29:25;;;;;;;22.15;14.05;;;2.20;70.60;;;;;;4971048;28;114559;-81
2023/12/10 12:31:55;;;;;;;28.42;14.82;;;2.20;70.60;;;;;;4987464;28;114699;-82
2023/12/10 12:34:43;;;;;;;26.88;15.32;;;2.20;70.70;;;;;;4987607;28;115328;-82
2023/12/10 12:37:13;;;;;;;31.92;15.27;;;2.20;70.80;;;;;;4986421;28;115151;-81
2023/12/10 12:39:40;;;;;;;28.52;15.63;;;2.20;70.80;;;;;;4971007;28;114693;-81